sensor_id;sensor_type;location;lat;lon;timestamp;temperature;humidity
51327;DHT22;37412;52.836;6.362;2023-07-22T00:01:12;14.30;99.90
51327;DHT22;37412;52.836;6.362;2023-07-22T00:03:58;14.30;99.90
51327;DHT22;37412;52.836;6.362;2023-07-22T00:06:44;14.30;99.90
51327;DHT22;37412;52.836;6.362;2023-07-22T00:09:32;14.30;99.90
51327;DHT22;37412;52.836;6.362;2023-07-22T00:12:22;14.40;99.90
51327;DHT22;37412;52.836;6.362;2023-07-22T00:15:11;14.20;99.90
51327;DHT22;37412;52.836;6.362;2023-07-22T00:18:00;14.20;99.90
51327;DHT22;37412;52.836;6.362;2023-07-22T00:20:46;14.20;99.90
51327;DHT22;37412;52.836;6.362;2023-07-22T00:23:31;14.10;99.90
51327;DHT22;37412;52.836;6.362;2023-07-22T00:26:17;14.10;99.90
51327;DHT22;37412;52.836;6.362;2023-07-22T00:29:03;14.10;99.90
51327;DHT22;37412;52.836;6.362;2023-07-22T00:31:50;14.00;99.90
51327;DHT22;37412;52.836;6.362;2023-07-22T00:34:36;14.00;99.90
51327;DHT22;37412;52.836;6.362;2023-07-22T00:37:25;14.00;99.90
51327;DHT22;37412;52.836;6.362;2023-07-22T00:40:11;14.00;99.90
51327;DHT22;37412;52.836;6.362;2023-07-22T00:42:57;13.90;99.90
51327;DHT22;37412;52.836;6.362;2023-07-22T00:45:44;13.90;99.90
51327;DHT22;37412;52.836;6.362;2023-07-22T00:48:31;13.90;99.90
51327;DHT22;37412;52.836;6.362;2023-07-22T00:51:17;13.80;99.90
51327;DHT22;37412;52.836;6.362;2023-07-22T00:54:05;13.90;99.90
51327;DHT22;37412;52.836;6.362;2023-07-22T00:56:51;13.80;99.90
51327;DHT22;37412;52.836;6.362;2023-07-22T00:59:37;13.80;99.90
51327;DHT22;37412;52.836;6.362;2023-07-22T01:02:23;13.80;99.90
51327;DHT22;37412;52.836;6.362;2023-07-22T01:05:10;13.80;99.90
51327;DHT22;37412;52.836;6.362;2023-07-22T01:07:57;13.80;99.90
51327;DHT22;37412;52.836;6.362;2023-07-22T01:10:44;13.80;99.90
51327;DHT22;37412;52.836;6.362;2023-07-22T01:13:30;13.90;99.90
51327;DHT22;37412;52.836;6.362;2023-07-22T01:16:16;13.80;99.90
51327;DHT22;37412;52.836;6.362;2023-07-22T01:19:03;13.80;99.90
51327;DHT22;37412;52.836;6.362;2023-07-22T01:21:51;13.80;99.90
51327;DHT22;37412;52.836;6.362;2023-07-22T01:24:41;13.80;99.90
51327;DHT22;37412;52.836;6.362;2023-07-22T01:27:27;13.80;99.90
51327;DHT22;37412;52.836;6.362;2023-07-22T01:30:13;13.70;99.90
51327;DHT22;37412;52.836;6.362;2023-07-22T01:32:59;13.70;99.90
51327;DHT22;37412;52.836;6.362;2023-07-22T01:35:45;13.60;99.90
51327;DHT22;37412;52.836;6.362;2023-07-22T01:38:31;13.50;99.90
51327;DHT22;37412;52.836;6.362;2023-07-22T01:41:17;13.50;99.90
51327;DHT22;37412;52.836;6.362;2023-07-22T01:44:06;13.50;99.90
51327;DHT22;37412;52.836;6.362;2023-07-22T01:46:53;13.40;99.90
51327;DHT22;37412;52.836;6.362;2023-07-22T01:49:40;13.40;99.90
51327;DHT22;37412;52.836;6.362;2023-07-22T01:52:25;13.40;99.90
51327;DHT22;37412;52.836;6.362;2023-07-22T01:55:11;13.30;99.90
51327;DHT22;37412;52.836;6.362;2023-07-22T01:57:57;13.40;99.90
51327;DHT22;37412;52.836;6.362;2023-07-22T02:00:50;13.30;99.90
51327;DHT22;37412;52.836;6.362;2023-07-22T02:03:36;13.30;99.90
51327;DHT22;37412;52.836;6.362;2023-07-22T02:06:22;13.30;99.90
51327;DHT22;37412;52.836;6.362;2023-07-22T02:09:08;13.30;99.90
51327;DHT22;37412;52.836;6.362;2023-07-22T02:11:54;13.30;99.90
51327;DHT22;37412;52.836;6.362;2023-07-22T02:14:40;13.30;99.90
51327;DHT22;37412;52.836;6.362;2023-07-22T02:17:26;13.30;99.90
51327;DHT22;37412;52.836;6.362;2023-07-22T02:20:12;13.30;99.90
51327;DHT22;37412;52.836;6.362;2023-07-22T02:22:58;13.30;99.90
51327;DHT22;37412;52.836;6.362;2023-07-22T02:25:44;13.30;99.90
51327;DHT22;37412;52.836;6.362;2023-07-22T02:28:34;13.30;99.90
51327;DHT22;37412;52.836;6.362;2023-07-22T02:31:20;13.30;99.90
51327;DHT22;37412;52.836;6.362;2023-07-22T02:34:07;13.30;99.90
51327;DHT22;37412;52.836;6.362;2023-07-22T02:36:53;13.20;99.90
51327;DHT22;37412;52.836;6.362;2023-07-22T02:39:39;13.20;99.90
51327;DHT22;37412;52.836;6.362;2023-07-22T02:42:25;13.20;99.90
51327;DHT22;37412;52.836;6.362;2023-07-22T02:45:11;13.20;99.90
51327;DHT22;37412;52.836;6.362;2023-07-22T02:47:58;13.10;99.90
51327;DHT22;37412;52.836;6.362;2023-07-22T02:50:45;13.00;99.90
51327;DHT22;37412;52.836;6.362;2023-07-22T02:53:32;13.00;99.90
51327;DHT22;37412;52.836;6.362;2023-07-22T02:56:18;13.00;99.90
51327;DHT22;37412;52.836;6.362;2023-07-22T02:59:04;13.00;99.90
51327;DHT22;37412;52.836;6.362;2023-07-22T03:01:50;12.90;99.90
51327;DHT22;37412;52.836;6.362;2023-07-22T03:04:36;12.90;99.90
51327;DHT22;37412;52.836;6.362;2023-07-22T03:07:22;12.90;99.90
51327;DHT22;37412;52.836;6.362;2023-07-22T03:10:09;13.00;99.90
51327;DHT22;37412;52.836;6.362;2023-07-22T03:12:55;13.00;99.90
51327;DHT22;37412;52.836;6.362;2023-07-22T03:15:43;13.10;99.90
51327;DHT22;37412;52.836;6.362;2023-07-22T03:18:30;13.10;99.90
51327;DHT22;37412;52.836;6.362;2023-07-22T03:21:16;13.10;99.90
51327;DHT22;37412;52.836;6.362;2023-07-22T03:24:02;13.10;99.90
51327;DHT22;37412;52.836;6.362;2023-07-22T03:26:48;13.10;99.90
51327;DHT22;37412;52.836;6.362;2023-07-22T03:29:34;13.20;99.90
51327;DHT22;37412;52.836;6.362;2023-07-22T03:32:20;13.20;99.90
51327;DHT22;37412;52.836;6.362;2023-07-22T03:35:07;13.20;99.90
51327;DHT22;37412;52.836;6.362;2023-07-22T03:37:55;13.30;99.90
51327;DHT22;37412;52.836;6.362;2023-07-22T03:40:41;13.30;99.90
51327;DHT22;37412;52.836;6.362;2023-07-22T03:43:27;13.30;99.90
51327;DHT22;37412;52.836;6.362;2023-07-22T03:46:13;13.30;99.90
51327;DHT22;37412;52.836;6.362;2023-07-22T03:48:59;13.40;99.90
51327;DHT22;37412;52.836;6.362;2023-07-22T03:51:45;13.40;99.90
51327;DHT22;37412;52.836;6.362;2023-07-22T03:54:31;13.40;99.90
51327;DHT22;37412;52.836;6.362;2023-07-22T03:57:17;13.50;99.90
51327;DHT22;37412;52.836;6.362;2023-07-22T04:00:04;13.40;99.90
51327;DHT22;37412;52.836;6.362;2023-07-22T04:02:51;13.40;99.90
51327;DHT22;37412;52.836;6.362;2023-07-22T04:05:37;13.40;99.90
51327;DHT22;37412;52.836;6.362;2023-07-22T04:08:23;13.50;99.90
51327;DHT22;37412;52.836;6.362;2023-07-22T04:11:09;13.50;99.90
51327;DHT22;37412;52.836;6.362;2023-07-22T04:13:55;13.50;99.90
51327;DHT22;37412;52.836;6.362;2023-07-22T04:16:41;13.40;99.90
51327;DHT22;37412;52.836;6.362;2023-07-22T04:19:26;13.30;99.90
51327;DHT22;37412;52.836;6.362;2023-07-22T04:22:12;13.40;99.90
51327;DHT22;37412;52.836;6.362;2023-07-22T04:24:59;13.40;99.90
51327;DHT22;37412;52.836;6.362;2023-07-22T04:27:45;13.30;99.90
51327;DHT22;37412;52.836;6.362;2023-07-22T04:30:34;13.40;99.90
51327;DHT22;37412;52.836;6.362;2023-07-22T04:33:20;13.40;99.90
51327;DHT22;37412;52.836;6.362;2023-07-22T04:36:06;13.40;99.90
51327;DHT22;37412;52.836;6.362;2023-07-22T04:38:52;13.50;99.90
51327;DHT22;37412;52.836;6.362;2023-07-22T04:41:38;13.50;99.90
51327;DHT22;37412;52.836;6.362;2023-07-22T04:44:24;13.50;99.90
51327;DHT22;37412;52.836;6.362;2023-07-22T04:47:10;13.50;99.90
51327;DHT22;37412;52.836;6.362;2023-07-22T04:49:56;13.50;99.90
51327;DHT22;37412;52.836;6.362;2023-07-22T04:52:44;13.50;99.90
51327;DHT22;37412;52.836;6.362;2023-07-22T04:55:31;13.60;99.90
51327;DHT22;37412;52.836;6.362;2023-07-22T04:58:18;13.60;99.90
51327;DHT22;37412;52.836;6.362;2023-07-22T05:01:05;13.70;99.90
51327;DHT22;37412;52.836;6.362;2023-07-22T05:03:51;13.70;99.90
51327;DHT22;37412;52.836;6.362;2023-07-22T05:06:37;13.60;99.90
51327;DHT22;37412;52.836;6.362;2023-07-22T05:09:23;13.70;99.90
51327;DHT22;37412;52.836;6.362;2023-07-22T05:12:09;13.70;99.90
51327;DHT22;37412;52.836;6.362;2023-07-22T05:14:55;13.70;99.90
51327;DHT22;37412;52.836;6.362;2023-07-22T05:17:41;13.70;99.90
51327;DHT22;37412;52.836;6.362;2023-07-22T05:20:27;13.70;99.90
51327;DHT22;37412;52.836;6.362;2023-07-22T05:23:13;13.80;99.90
51327;DHT22;37412;52.836;6.362;2023-07-22T05:25:59;13.80;99.90
51327;DHT22;37412;52.836;6.362;2023-07-22T05:28:45;13.80;99.90
51327;DHT22;37412;52.836;6.362;2023-07-22T05:31:30;13.80;99.90
51327;DHT22;37412;52.836;6.362;2023-07-22T05:34:16;13.90;99.90
51327;DHT22;37412;52.836;6.362;2023-07-22T05:37:02;13.80;99.90
51327;DHT22;37412;52.836;6.362;2023-07-22T05:39:48;13.80;99.90
51327;DHT22;37412;52.836;6.362;2023-07-22T05:42:37;13.90;99.90
51327;DHT22;37412;52.836;6.362;2023-07-22T05:45:23;13.90;99.90
51327;DHT22;37412;52.836;6.362;2023-07-22T05:48:12;13.90;99.90
51327;DHT22;37412;52.836;6.362;2023-07-22T05:51:00;13.90;99.90
51327;DHT22;37412;52.836;6.362;2023-07-22T05:53:49;14.00;99.90
51327;DHT22;37412;52.836;6.362;2023-07-22T05:56:35;14.00;99.90
51327;DHT22;37412;52.836;6.362;2023-07-22T05:59:21;14.10;99.90
51327;DHT22;37412;52.836;6.362;2023-07-22T06:02:08;14.10;99.90
51327;DHT22;37412;52.836;6.362;2023-07-22T06:04:54;14.20;99.90
51327;DHT22;37412;52.836;6.362;2023-07-22T06:07:40;14.20;99.90
51327;DHT22;37412;52.836;6.362;2023-07-22T06:10:26;14.20;99.90
51327;DHT22;37412;52.836;6.362;2023-07-22T06:13:12;14.30;99.90
51327;DHT22;37412;52.836;6.362;2023-07-22T06:15:58;14.40;99.90
51327;DHT22;37412;52.836;6.362;2023-07-22T06:18:44;14.40;99.90
51327;DHT22;37412;52.836;6.362;2023-07-22T06:21:49;14.40;99.90
51327;DHT22;37412;52.836;6.362;2023-07-22T06:24:35;14.50;99.90
51327;DHT22;37412;52.836;6.362;2023-07-22T06:27:21;14.50;99.90
51327;DHT22;37412;52.836;6.362;2023-07-22T06:30:08;14.50;99.90
51327;DHT22;37412;52.836;6.362;2023-07-22T06:32:54;14.60;99.90
51327;DHT22;37412;52.836;6.362;2023-07-22T06:35:41;14.70;99.90
51327;DHT22;37412;52.836;6.362;2023-07-22T06:38:29;14.80;99.90
51327;DHT22;37412;52.836;6.362;2023-07-22T06:41:19;14.90;99.90
51327;DHT22;37412;52.836;6.362;2023-07-22T06:44:05;15.00;99.90
51327;DHT22;37412;52.836;6.362;2023-07-22T06:46:57;15.00;99.90
51327;DHT22;37412;52.836;6.362;2023-07-22T06:49:43;15.00;99.90
51327;DHT22;37412;52.836;6.362;2023-07-22T06:52:30;15.10;99.90
51327;DHT22;37412;52.836;6.362;2023-07-22T06:55:16;15.10;99.90
51327;DHT22;37412;52.836;6.362;2023-07-22T06:58:02;15.20;99.90
51327;DHT22;37412;52.836;6.362;2023-07-22T07:00:58;15.20;99.90
51327;DHT22;37412;52.836;6.362;2023-07-22T07:03:44;15.20;99.90
51327;DHT22;37412;52.836;6.362;2023-07-22T07:06:30;15.30;99.90
51327;DHT22;37412;52.836;6.362;2023-07-22T07:09:17;15.30;99.90
51327;DHT22;37412;52.836;6.362;2023-07-22T07:12:03;15.40;99.90
51327;DHT22;37412;52.836;6.362;2023-07-22T07:14:53;15.40;99.90
51327;DHT22;37412;52.836;6.362;2023-07-22T07:17:39;15.50;99.90
51327;DHT22;37412;52.836;6.362;2023-07-22T07:20:25;15.50;99.90
51327;DHT22;37412;52.836;6.362;2023-07-22T07:23:11;15.60;99.90
51327;DHT22;37412;52.836;6.362;2023-07-22T07:25:57;15.60;99.90
51327;DHT22;37412;52.836;6.362;2023-07-22T07:28:45;15.60;99.90
51327;DHT22;37412;52.836;6.362;2023-07-22T07:31:32;15.60;99.90
51327;DHT22;37412;52.836;6.362;2023-07-22T07:34:22;15.70;99.90
51327;DHT22;37412;52.836;6.362;2023-07-22T07:37:11;15.80;99.90
51327;DHT22;37412;52.836;6.362;2023-07-22T07:39:57;16.00;99.90
51327;DHT22;37412;52.836;6.362;2023-07-22T07:42:48;16.20;99.90
51327;DHT22;37412;52.836;6.362;2023-07-22T07:45:38;16.30;99.90
51327;DHT22;37412;52.836;6.362;2023-07-22T07:48:24;16.50;99.90
51327;DHT22;37412;52.836;6.362;2023-07-22T07:51:17;16.50;99.90
51327;DHT22;37412;52.836;6.362;2023-07-22T07:54:03;16.50;99.90
51327;DHT22;37412;52.836;6.362;2023-07-22T07:56:49;16.40;99.90
51327;DHT22;37412;52.836;6.362;2023-07-22T07:59:35;16.40;99.90
51327;DHT22;37412;52.836;6.362;2023-07-22T08:02:21;16.50;99.90
51327;DHT22;37412;52.836;6.362;2023-07-22T08:05:08;16.50;99.90
51327;DHT22;37412;52.836;6.362;2023-07-22T08:07:54;16.50;99.90
51327;DHT22;37412;52.836;6.362;2023-07-22T08:10:40;16.40;99.90
51327;DHT22;37412;52.836;6.362;2023-07-22T08:13:26;16.30;99.90
51327;DHT22;37412;52.836;6.362;2023-07-22T08:16:13;16.30;99.90
51327;DHT22;37412;52.836;6.362;2023-07-22T08:18:59;16.30;99.90
51327;DHT22;37412;52.836;6.362;2023-07-22T08:21:45;16.30;99.90
51327;DHT22;37412;52.836;6.362;2023-07-22T08:24:34;16.30;99.90
51327;DHT22;37412;52.836;6.362;2023-07-22T08:27:20;16.40;99.90
51327;DHT22;37412;52.836;6.362;2023-07-22T08:30:07;16.50;99.90
51327;DHT22;37412;52.836;6.362;2023-07-22T08:32:53;16.40;99.90
51327;DHT22;37412;52.836;6.362;2023-07-22T08:35:40;16.50;99.90
51327;DHT22;37412;52.836;6.362;2023-07-22T08:38:26;16.50;99.90
51327;DHT22;37412;52.836;6.362;2023-07-22T08:41:17;16.40;99.90
51327;DHT22;37412;52.836;6.362;2023-07-22T08:44:04;16.40;99.90
51327;DHT22;37412;52.836;6.362;2023-07-22T08:46:55;16.30;99.90
51327;DHT22;37412;52.836;6.362;2023-07-22T08:49:46;16.30;99.90
51327;DHT22;37412;52.836;6.362;2023-07-22T08:52:34;16.20;99.90
51327;DHT22;37412;52.836;6.362;2023-07-22T08:55:21;16.10;99.90
51327;DHT22;37412;52.836;6.362;2023-07-22T08:58:08;16.10;99.90
51327;DHT22;37412;52.836;6.362;2023-07-22T09:00:56;16.00;99.90
51327;DHT22;37412;52.836;6.362;2023-07-22T09:03:42;16.00;99.90
51327;DHT22;37412;52.836;6.362;2023-07-22T09:06:29;16.10;99.90
51327;DHT22;37412;52.836;6.362;2023-07-22T09:09:15;16.10;99.90
51327;DHT22;37412;52.836;6.362;2023-07-22T09:12:01;16.00;99.90
51327;DHT22;37412;52.836;6.362;2023-07-22T09:14:47;16.00;99.90
51327;DHT22;37412;52.836;6.362;2023-07-22T09:17:33;16.10;99.90
51327;DHT22;37412;52.836;6.362;2023-07-22T09:20:20;16.20;99.90
51327;DHT22;37412;52.836;6.362;2023-07-22T09:23:06;16.30;99.90
51327;DHT22;37412;52.836;6.362;2023-07-22T09:25:52;16.50;99.90
51327;DHT22;37412;52.836;6.362;2023-07-22T09:28:54;16.70;99.90
51327;DHT22;37412;52.836;6.362;2023-07-22T09:31:50;16.80;99.90
51327;DHT22;37412;52.836;6.362;2023-07-22T09:34:36;16.90;99.90
51327;DHT22;37412;52.836;6.362;2023-07-22T09:37:22;17.00;99.90
51327;DHT22;37412;52.836;6.362;2023-07-22T09:40:23;16.90;99.90
51327;DHT22;37412;52.836;6.362;2023-07-22T09:43:09;16.90;99.90
51327;DHT22;37412;52.836;6.362;2023-07-22T09:45:55;16.90;99.90
51327;DHT22;37412;52.836;6.362;2023-07-22T09:48:42;16.90;99.90
51327;DHT22;37412;52.836;6.362;2023-07-22T09:51:32;16.90;99.90
51327;DHT22;37412;52.836;6.362;2023-07-22T09:54:19;16.80;99.90
51327;DHT22;37412;52.836;6.362;2023-07-22T09:57:05;16.90;99.90
51327;DHT22;37412;52.836;6.362;2023-07-22T09:59:51;16.90;99.90
51327;DHT22;37412;52.836;6.362;2023-07-22T10:02:38;16.90;99.90
51327;DHT22;37412;52.836;6.362;2023-07-22T10:05:25;17.10;99.90
51327;DHT22;37412;52.836;6.362;2023-07-22T10:08:11;16.70;99.90
51327;DHT22;37412;52.836;6.362;2023-07-22T10:10:57;16.60;99.90
51327;DHT22;37412;52.836;6.362;2023-07-22T10:13:44;16.60;99.90
51327;DHT22;37412;52.836;6.362;2023-07-22T10:16:30;16.40;99.90
51327;DHT22;37412;52.836;6.362;2023-07-22T10:19:16;16.40;99.90
51327;DHT22;37412;52.836;6.362;2023-07-22T10:22:02;16.40;99.90
51327;DHT22;37412;52.836;6.362;2023-07-22T10:24:49;16.40;99.90
51327;DHT22;37412;52.836;6.362;2023-07-22T10:27:35;16.40;99.90
51327;DHT22;37412;52.836;6.362;2023-07-22T10:30:21;16.50;99.90
51327;DHT22;37412;52.836;6.362;2023-07-22T10:33:07;16.60;99.90
51327;DHT22;37412;52.836;6.362;2023-07-22T10:36:03;16.60;99.90
51327;DHT22;37412;52.836;6.362;2023-07-22T10:38:57;16.60;99.90
51327;DHT22;37412;52.836;6.362;2023-07-22T10:41:43;16.60;99.90
51327;DHT22;37412;52.836;6.362;2023-07-22T10:44:36;16.50;99.90
51327;DHT22;37412;52.836;6.362;2023-07-22T10:47:31;16.50;99.90
51327;DHT22;37412;52.836;6.362;2023-07-22T10:50:18;16.40;99.90
51327;DHT22;37412;52.836;6.362;2023-07-22T10:53:04;16.40;99.90
51327;DHT22;37412;52.836;6.362;2023-07-22T10:59:09;16.30;99.90
51327;DHT22;37412;52.836;6.362;2023-07-22T11:01:55;16.10;99.90
51327;DHT22;37412;52.836;6.362;2023-07-22T11:04:41;16.00;99.90
51327;DHT22;37412;52.836;6.362;2023-07-22T11:07:33;16.00;99.90
51327;DHT22;37412;52.836;6.362;2023-07-22T11:10:19;15.90;99.90
51327;DHT22;37412;52.836;6.362;2023-07-22T11:13:05;15.80;99.90
51327;DHT22;37412;52.836;6.362;2023-07-22T11:15:52;15.80;99.90
51327;DHT22;37412;52.836;6.362;2023-07-22T11:18:38;15.80;99.90
51327;DHT22;37412;52.836;6.362;2023-07-22T11:21:24;15.70;99.90
51327;DHT22;37412;52.836;6.362;2023-07-22T11:24:10;15.80;99.90
51327;DHT22;37412;52.836;6.362;2023-07-22T11:26:56;15.90;99.90
51327;DHT22;37412;52.836;6.362;2023-07-22T11:29:45;16.00;99.90
51327;DHT22;37412;52.836;6.362;2023-07-22T11:32:31;16.60;99.90
51327;DHT22;37412;52.836;6.362;2023-07-22T11:35:17;15.90;99.90
51327;DHT22;37412;52.836;6.362;2023-07-22T11:38:04;15.90;99.90
51327;DHT22;37412;52.836;6.362;2023-07-22T11:40:50;15.90;99.90
51327;DHT22;37412;52.836;6.362;2023-07-22T11:43:38;16.00;99.90
51327;DHT22;37412;52.836;6.362;2023-07-22T11:46:24;15.90;99.90
51327;DHT22;37412;52.836;6.362;2023-07-22T11:49:11;16.00;99.90
51327;DHT22;37412;52.836;6.362;2023-07-22T11:54:44;15.90;99.90
51327;DHT22;37412;52.836;6.362;2023-07-22T11:57:30;15.90;99.90
51327;DHT22;37412;52.836;6.362;2023-07-22T12:00:16;16.00;99.90
51327;DHT22;37412;52.836;6.362;2023-07-22T12:03:05;15.90;99.90
51327;DHT22;37412;52.836;6.362;2023-07-22T12:05:51;16.00;99.90
51327;DHT22;37412;52.836;6.362;2023-07-22T12:08:42;16.00;99.90
51327;DHT22;37412;52.836;6.362;2023-07-22T12:11:31;16.10;99.90
51327;DHT22;37412;52.836;6.362;2023-07-22T12:14:18;16.10;99.90
51327;DHT22;37412;52.836;6.362;2023-07-22T12:17:07;16.10;99.90
51327;DHT22;37412;52.836;6.362;2023-07-22T12:19:53;16.20;99.90
51327;DHT22;37412;52.836;6.362;2023-07-22T12:22:39;16.30;99.90
51327;DHT22;37412;52.836;6.362;2023-07-22T12:25:25;16.20;99.90
51327;DHT22;37412;52.836;6.362;2023-07-22T12:28:11;16.20;99.90
51327;DHT22;37412;52.836;6.362;2023-07-22T12:30:57;16.20;99.90
51327;DHT22;37412;52.836;6.362;2023-07-22T12:33:43;16.20;99.90
51327;DHT22;37412;52.836;6.362;2023-07-22T12:36:29;16.10;99.90
51327;DHT22;37412;52.836;6.362;2023-07-22T12:39:15;16.10;99.90
51327;DHT22;37412;52.836;6.362;2023-07-22T12:42:00;16.00;99.90
51327;DHT22;37412;52.836;6.362;2023-07-22T12:44:46;16.00;99.90
51327;DHT22;37412;52.836;6.362;2023-07-22T12:47:32;16.00;99.90
51327;DHT22;37412;52.836;6.362;2023-07-22T12:50:18;15.90;99.90
51327;DHT22;37412;52.836;6.362;2023-07-22T12:53:04;15.80;99.90
51327;DHT22;37412;52.836;6.362;2023-07-22T12:55:50;15.70;99.90
51327;DHT22;37412;52.836;6.362;2023-07-22T12:58:35;15.70;99.90
51327;DHT22;37412;52.836;6.362;2023-07-22T13:01:21;15.60;99.90
51327;DHT22;37412;52.836;6.362;2023-07-22T13:04:07;15.60;99.90
51327;DHT22;37412;52.836;6.362;2023-07-22T13:06:53;15.70;99.90
51327;DHT22;37412;52.836;6.362;2023-07-22T13:09:39;15.60;99.90
51327;DHT22;37412;52.836;6.362;2023-07-22T13:12:26;15.70;99.90
51327;DHT22;37412;52.836;6.362;2023-07-22T13:15:11;15.80;99.90
51327;DHT22;37412;52.836;6.362;2023-07-22T13:17:57;15.90;99.90
51327;DHT22;37412;52.836;6.362;2023-07-22T13:20:43;16.00;99.90
51327;DHT22;37412;52.836;6.362;2023-07-22T13:23:29;16.10;99.90
51327;DHT22;37412;52.836;6.362;2023-07-22T13:26:15;16.20;99.90
51327;DHT22;37412;52.836;6.362;2023-07-22T13:29:01;16.40;99.90
51327;DHT22;37412;52.836;6.362;2023-07-22T13:31:46;16.40;99.90
51327;DHT22;37412;52.836;6.362;2023-07-22T13:34:32;16.60;99.90
51327;DHT22;37412;52.836;6.362;2023-07-22T13:37:18;16.70;99.90
51327;DHT22;37412;52.836;6.362;2023-07-22T13:40:04;16.90;99.90
51327;DHT22;37412;52.836;6.362;2023-07-22T13:42:55;16.90;99.90
51327;DHT22;37412;52.836;6.362;2023-07-22T13:45:41;17.10;99.90
51327;DHT22;37412;52.836;6.362;2023-07-22T13:48:27;17.10;99.90
51327;DHT22;37412;52.836;6.362;2023-07-22T13:51:13;17.20;99.90
51327;DHT22;37412;52.836;6.362;2023-07-22T13:53:59;17.20;99.90
51327;DHT22;37412;52.836;6.362;2023-07-22T13:56:45;17.20;99.90
51327;DHT22;37412;52.836;6.362;2023-07-22T13:59:32;17.20;99.90
51327;DHT22;37412;52.836;6.362;2023-07-22T14:02:18;17.30;99.90
51327;DHT22;37412;52.836;6.362;2023-07-22T14:05:04;17.40;99.90
51327;DHT22;37412;52.836;6.362;2023-07-22T14:07:50;17.30;99.90
51327;DHT22;37412;52.836;6.362;2023-07-22T14:10:36;17.20;99.90
51327;DHT22;37412;52.836;6.362;2023-07-22T14:13:22;17.10;99.90
51327;DHT22;37412;52.836;6.362;2023-07-22T14:16:08;17.00;99.90
51327;DHT22;37412;52.836;6.362;2023-07-22T14:18:54;16.90;99.90
51327;DHT22;37412;52.836;6.362;2023-07-22T14:21:40;17.00;99.90
51327;DHT22;37412;52.836;6.362;2023-07-22T14:24:26;17.10;99.90
51327;DHT22;37412;52.836;6.362;2023-07-22T14:27:12;17.10;99.90
51327;DHT22;37412;52.836;6.362;2023-07-22T14:29:58;17.20;99.90
51327;DHT22;37412;52.836;6.362;2023-07-22T14:32:44;17.10;99.90
51327;DHT22;37412;52.836;6.362;2023-07-22T14:35:29;17.10;99.90
51327;DHT22;37412;52.836;6.362;2023-07-22T14:38:18;17.10;99.90
51327;DHT22;37412;52.836;6.362;2023-07-22T14:41:04;17.10;99.90
51327;DHT22;37412;52.836;6.362;2023-07-22T14:43:49;17.10;99.90
51327;DHT22;37412;52.836;6.362;2023-07-22T14:46:36;17.10;99.90
51327;DHT22;37412;52.836;6.362;2023-07-22T14:49:21;17.00;99.90
51327;DHT22;37412;52.836;6.362;2023-07-22T14:52:07;16.90;99.90
51327;DHT22;37412;52.836;6.362;2023-07-22T14:54:53;16.90;99.90
51327;DHT22;37412;52.836;6.362;2023-07-22T14:57:39;16.80;99.90
51327;DHT22;37412;52.836;6.362;2023-07-22T15:00:25;16.80;99.90
51327;DHT22;37412;52.836;6.362;2023-07-22T15:03:11;16.80;99.90
51327;DHT22;37412;52.836;6.362;2023-07-22T15:05:56;16.70;99.90
51327;DHT22;37412;52.836;6.362;2023-07-22T15:08:42;16.70;99.90
51327;DHT22;37412;52.836;6.362;2023-07-22T15:11:28;16.80;99.90
51327;DHT22;37412;52.836;6.362;2023-07-22T15:14:14;16.70;99.90
51327;DHT22;37412;52.836;6.362;2023-07-22T15:17:00;16.70;99.90
51327;DHT22;37412;52.836;6.362;2023-07-22T15:19:46;16.70;99.90
51327;DHT22;37412;52.836;6.362;2023-07-22T15:22:32;16.60;99.90
51327;DHT22;37412;52.836;6.362;2023-07-22T15:25:17;16.60;99.90
51327;DHT22;37412;52.836;6.362;2023-07-22T15:28:03;16.50;99.90
51327;DHT22;37412;52.836;6.362;2023-07-22T15:30:49;16.40;99.90
51327;DHT22;37412;52.836;6.362;2023-07-22T15:33:35;16.50;99.90
51327;DHT22;37412;52.836;6.362;2023-07-22T15:36:21;16.30;99.90
51327;DHT22;37412;52.836;6.362;2023-07-22T15:39:07;16.30;99.90
51327;DHT22;37412;52.836;6.362;2023-07-22T15:41:54;16.30;99.90
51327;DHT22;37412;52.836;6.362;2023-07-22T15:44:40;16.30;99.90
51327;DHT22;37412;52.836;6.362;2023-07-22T15:47:26;16.30;99.90
51327;DHT22;37412;52.836;6.362;2023-07-22T15:50:11;16.30;99.90
51327;DHT22;37412;52.836;6.362;2023-07-22T15:52:58;16.20;99.90
51327;DHT22;37412;52.836;6.362;2023-07-22T15:55:43;16.20;99.90
51327;DHT22;37412;52.836;6.362;2023-07-22T15:58:29;16.20;99.90
51327;DHT22;37412;52.836;6.362;2023-07-22T16:01:15;16.30;99.90
51327;DHT22;37412;52.836;6.362;2023-07-22T16:04:01;16.30;99.90
51327;DHT22;37412;52.836;6.362;2023-07-22T16:06:47;16.30;99.90
51327;DHT22;37412;52.836;6.362;2023-07-22T16:09:33;16.40;99.90
51327;DHT22;37412;52.836;6.362;2023-07-22T16:12:19;16.40;99.90
51327;DHT22;37412;52.836;6.362;2023-07-22T16:15:05;16.40;99.90
51327;DHT22;37412;52.836;6.362;2023-07-22T16:17:52;16.40;99.90
51327;DHT22;37412;52.836;6.362;2023-07-22T16:20:38;16.50;99.90
51327;DHT22;37412;52.836;6.362;2023-07-22T16:23:24;16.50;99.90
51327;DHT22;37412;52.836;6.362;2023-07-22T16:26:10;16.50;99.90
51327;DHT22;37412;52.836;6.362;2023-07-22T16:28:55;16.50;99.90
51327;DHT22;37412;52.836;6.362;2023-07-22T16:31:41;16.40;99.90
51327;DHT22;37412;52.836;6.362;2023-07-22T16:34:27;16.50;99.90
51327;DHT22;37412;52.836;6.362;2023-07-22T16:37:13;16.50;99.90
51327;DHT22;37412;52.836;6.362;2023-07-22T16:39:59;16.50;99.90
51327;DHT22;37412;52.836;6.362;2023-07-22T16:42:45;16.40;99.90
51327;DHT22;37412;52.836;6.362;2023-07-22T16:45:30;16.40;99.90
51327;DHT22;37412;52.836;6.362;2023-07-22T16:48:16;16.40;99.90
51327;DHT22;37412;52.836;6.362;2023-07-22T16:51:02;16.30;99.90
51327;DHT22;37412;52.836;6.362;2023-07-22T16:53:49;16.40;99.90
51327;DHT22;37412;52.836;6.362;2023-07-22T16:56:35;16.30;99.90
51327;DHT22;37412;52.836;6.362;2023-07-22T16:59:21;16.30;99.90
51327;DHT22;37412;52.836;6.362;2023-07-22T17:02:06;16.30;99.90
51327;DHT22;37412;52.836;6.362;2023-07-22T17:04:52;16.30;99.90
51327;DHT22;37412;52.836;6.362;2023-07-22T17:07:39;16.30;99.90
51327;DHT22;37412;52.836;6.362;2023-07-22T17:10:26;16.40;99.90
51327;DHT22;37412;52.836;6.362;2023-07-22T17:13:12;16.40;99.90
51327;DHT22;37412;52.836;6.362;2023-07-22T17:15:58;16.50;99.90
51327;DHT22;37412;52.836;6.362;2023-07-22T17:18:44;16.50;99.90
51327;DHT22;37412;52.836;6.362;2023-07-22T17:21:30;16.50;99.90
51327;DHT22;37412;52.836;6.362;2023-07-22T17:24:20;16.50;99.90
51327;DHT22;37412;52.836;6.362;2023-07-22T17:27:06;16.50;99.90
51327;DHT22;37412;52.836;6.362;2023-07-22T17:29:52;16.60;99.90
51327;DHT22;37412;52.836;6.362;2023-07-22T17:32:38;16.60;99.90
51327;DHT22;37412;52.836;6.362;2023-07-22T17:35:26;16.60;99.90
51327;DHT22;37412;52.836;6.362;2023-07-22T17:38:12;16.60;99.90